Latest Weather Observations for Noona

IDN60801

Issued at 10:32 pm EDT Tuesday 16 January 2018 (issued every 30 minutes, with the page automatically refreshed every 10 minutes)

About weather observations | Map of weather stations | Latest weather observations for NSW | Other Formats
Station Details ID: 048250 Name: NOONA AWS Lat: -31.73 Lon: 144.93 Height: 179.0 m
Data from the previous 72 hours. | See also: Recent months at Noona
Date/Time
EDT
Temp
°C
App
Temp
°C
Dew
Point
°C
Rel
Hum
%
Delta-T
°C
Wind Press
QNH
hPa
Press
MSL
hPa
Rain since
9am
mm
Dir  Spd
km/h
Gust
km/h
Spd
kts
Gust
kts
16/10:30pm 28.4 - 0.2 16 13.5 - - - - - - - 0.0
16/10:00pm 28.9 - -0.3 15 13.9 - - - - - - - 0.0
16/09:30pm 30.3 - -0.1 14 14.6 - - - - - - - 0.0
16/09:00pm 31.4 - -1.4 12 15.6 - - - - - - - 0.0
16/08:30pm 32.3 - -1.9 11 16.2 - - - - - - - 0.0
16/08:00pm 33.5 - -2.3 10 17.0 - - - - - - - 0.0
16/07:30pm 34.0 - 0.6 12 16.7 - - - - - - - 0.0
16/07:00pm 34.4 - 0.9 12 16.9 - - - - - - - 0.0
16/06:30pm 34.3 - 0.8 12 16.8 - - - - - - - 0.0
16/06:00pm 34.9 - 0.1 11 17.3 - - - - - - - 0.0
16/05:30pm 34.7 - 2.3 13 16.7 - - - - - - - 0.0
16/05:00pm 34.6 - 3.2 14 16.4 - - - - - - - 0.0
16/04:30pm 33.4 - 2.3 14 15.9 - - - - - - - 0.0
16/04:00pm 33.5 - 3.3 15 15.7 - - - - - - - 0.0
16/03:30pm 32.9 - 2.9 15 15.5 - - - - - - - 0.0
16/03:00pm 34.2 - 3.9 15 16.0 - - - - - - - 0.0
16/02:30pm 32.1 - 4.8 18 14.4 - - - - - - - 0.0
16/02:00pm 32.4 - 3.4 16 15.0 - - - - - - - 0.0
16/01:30pm 32.0 - 4.7 18 14.4 - - - - - - - 0.0
16/01:00pm 30.9 - 6.0 21 13.3 - - - - - - - 0.0
16/12:30pm 30.1 - 6.1 22 12.8 - - - - - - - 0.0
16/12:00pm 29.8 - 6.5 23 12.5 - - - - - - - 0.0
16/11:30am 29.3 - 6.7 24 12.1 - - - - - - - 0.0
16/11:00am 28.8 - 6.8 25 11.8 - - - - - - - 0.0
16/10:30am 28.3 - 7.5 27 11.3 - - - - - - - 0.0
16/10:00am 27.7 - 7.5 28 10.9 - - - - - - - 0.0
16/09:30am 27.1 - 7.5 29 10.6 - - - - - - - 0.0
16/09:00am 26.1 - 8.1 32 9.7 - - - - - - - 0.0
16/08:30am 24.2 - 7.8 35 8.7 - - - - - - - 0.0
16/08:00am 22.0 - 7.4 39 7.6 - - - - - - - 0.0
16/07:30am 20.9 - 7.2 41 7.1 - - - - - - - 0.0
16/07:00am 20.0 - 6.4 41 6.9 - - - - - - - 0.0
16/06:30am 19.6 - 6.4 42 6.7 - - - - - - - 0.0
16/06:00am 19.8 - 6.2 41 6.8 - - - - - - - 0.0
16/05:30am 20.3 - 5.9 39 7.2 - - - - - - - 0.0
16/05:00am 20.8 - 5.6 37 7.6 - - - - - - - 0.0
16/04:30am 21.8 - 5.7 35 8.1 - - - - - - - 0.0
16/04:00am 22.3 - 5.7 34 8.4 - - - - - - - 0.0
16/03:30am 22.9 - 5.3 32 8.9 - - - - - - - 0.0
16/03:00am 23.2 - 5.2 31 9.1 - - - - - - - 0.0
16/02:30am 23.9 - 5.3 30 9.4 - - - - - - - 0.0
16/02:00am 24.5 - 5.3 29 9.8 - - - - - - - 0.0
16/01:30am 25.2 - 4.9 27 10.3 - - - - - - - 0.0
16/01:00am 25.8 - 4.9 26 10.7 - - - - - - - 0.0
16/12:30am 26.4 - 4.8 25 11.0 - - - - - - - 0.0
16/12:00am 26.8 - 4.6 24 11.3 - - - - - - - 0.0
 
Date/Time
EDT
Temp
°C
App
Temp
°C
Dew
Point
°C
Rel
Hum
%
Delta-T
°C
Wind Press
QNH
hPa
Press
MSL
hPa
Rain since
9am
mm
Dir  Spd
km/h
Gust
km/h
Spd
kts
Gust
kts
15/11:30pm 27.2 - 4.3 23 11.7 - - - - - - - 0.0
15/11:00pm 27.5 - 3.9 22 12.0 - - - - - - - 0.0
15/10:30pm 28.1 - 3.7 21 12.4 - - - - - - - 0.0
15/10:00pm 28.5 - 4.1 21 12.5 - - - - - - - 0.0
15/09:30pm 29.3 - 3.3 19 13.2 - - - - - - - 0.0
15/09:00pm 29.8 - 2.9 18 13.6 - - - - - - - 0.0
15/08:30pm 30.2 - 3.3 18 13.7 - - - - - - - 0.0
15/08:00pm 31.1 - 3.2 17 14.3 - - - - - - - 0.0
15/07:30pm 31.7 - 2.8 16 14.8 - - - - - - - 0.0
15/07:00pm 31.9 - 3.8 17 14.6 - - - - - - - 0.0
15/06:30pm 32.0 - 3.1 16 14.9 - - - - - - - 0.0
15/06:00pm 32.3 - 3.3 16 15.0 - - - - - - - 0.0
15/05:30pm 31.9 - 3.8 17 14.6 - - - - - - - 0.0
15/05:00pm 31.9 - 3.8 17 14.6 - - - - - - - 0.0
15/04:30pm 31.4 - 3.4 17 14.4 - - - - - - - 0.0
15/04:00pm 31.5 - 3.5 17 14.4 - - - - - - - 0.0
15/03:30pm 31.2 - 4.9 19 13.9 - - - - - - - 0.0
15/03:00pm 31.7 - 5.3 19 14.0 - - - - - - - 0.0
15/02:30pm 30.3 - 4.9 20 13.3 - - - - - - - 0.0
15/02:00pm 29.8 - 4.4 20 13.2 - - - - - - - 0.0
15/01:30pm 28.9 - 3.0 19 13.0 - - - - - - - 0.0
15/01:00pm 27.8 - 3.5 21 12.3 - - - - - - - 0.0
15/12:30pm 27.4 - 3.2 21 12.1 - - - - - - - 0.0
15/12:00pm 26.6 - 3.2 22 11.6 - - - - - - - 0.0
15/11:30am 25.8 - 3.7 24 11.0 - - - - - - - 0.0
15/11:00am 25.2 - 4.3 26 10.5 - - - - - - - 0.0
15/10:30am 24.4 - 5.2 29 9.8 - - - - - - - 0.0
15/10:00am 22.2 - 5.6 34 8.4 - - - - - - - 0.0
15/09:30am 21.4 - 5.7 36 7.9 - - - - - - - 0.0
15/09:00am 20.2 - 5.8 39 7.2 - - - - - - - 0.0
15/08:30am 19.3 - 5.7 41 6.8 - - - - - - - 0.0
15/08:00am 18.4 - 5.9 44 6.2 - - - - - - - 0.0
15/07:30am 16.8 - 5.4 47 5.5 - - - - - - - 0.0
15/07:00am 15.8 - 4.8 48 5.2 - - - - - - - 0.0
15/06:30am 15.3 - 4.4 48 5.1 - - - - - - - 0.0
15/06:00am 15.6 - 4.0 46 5.4 - - - - - - - 0.0
15/05:30am 16.4 - 3.8 43 5.9 - - - - - - - 0.0
15/05:00am 17.1 - 3.8 41 6.3 - - - - - - - 0.0
15/04:30am 17.6 - 3.1 38 6.7 - - - - - - - 0.0
15/04:00am 18.2 - 3.3 37 7.0 - - - - - - - 0.0
15/03:30am 18.9 - 3.1 35 7.4 - - - - - - - 0.0
15/03:00am 19.3 - 2.6 33 7.8 - - - - - - - 0.0
15/02:30am 19.5 - 2.4 32 8.0 - - - - - - - 0.0
15/02:00am 20.0 - 1.9 30 8.4 - - - - - - - 0.0
15/01:30am 20.4 - 1.3 28 8.8 - - - - - - - 0.0
15/01:00am 20.7 - 1.1 27 9.0 - - - - - - - 0.0
15/12:30am 21.2 - 0.4 25 9.4 - - - - - - - 0.0
15/12:00am 21.6 - -0.4 23 9.9 - - - - - - - 0.0
 
Date/Time
EDT
Temp
°C
App
Temp
°C
Dew
Point
°C
Rel
Hum
%
Delta-T
°C
Wind Press
QNH
hPa
Press
MSL
hPa
Rain since
9am
mm
Dir  Spd
km/h
Gust
km/h
Spd
kts
Gust
kts
14/11:30pm 22.1 - -0.6 22 10.2 - - - - - - - 0.0
14/11:00pm 22.5 - -1.6 20 10.6 - - - - - - - 0.0
14/10:30pm 22.8 - -1.3 20 10.7 - - - - - - - 0.0
14/10:00pm 23.3 - -1.6 19 11.1 - - - - - - - 0.0
14/09:30pm 23.8 - -1.9 18 11.4 - - - - - - - 0.0
14/09:00pm 24.1 - -1.7 18 11.5 - - - - - - - 0.0
14/08:30pm 24.7 - -2.0 17 11.9 - - - - - - - 0.0
14/08:00pm 25.4 - -3.1 15 12.5 - - - - - - - 0.0
14/07:30pm 26.0 - -3.5 14 12.9 - - - - - - - 0.0
14/07:00pm 26.7 - -2.1 15 13.0 - - - - - - - 0.0
14/06:30pm 26.5 - -2.2 15 12.9 - - - - - - - 0.0
14/06:00pm 26.8 - -2.0 15 13.1 - - - - - - - 0.0
14/05:30pm 27.4 - -2.4 14 13.5 - - - - - - - 0.0
14/05:00pm 27.0 - -1.8 15 13.1 - - - - - - - 0.0
14/04:30pm 26.4 - 0.2 18 12.3 - - - - - - - 0.0
14/04:00pm 25.5 - 0.9 20 11.7 - - - - - - - 0.0
14/03:30pm 25.6 - 1.0 20 11.7 - - - - - - - 0.0
14/03:00pm 24.9 - 1.1 21 11.3 - - - - - - - 0.0
14/02:30pm 24.7 - 1.6 22 11.0 - - - - - - - 0.0
14/02:00pm 23.8 - 0.8 22 10.7 - - - - - - - 0.0
14/01:30pm 22.3 - 1.3 25 9.8 - - - - - - - 0.0
14/01:00pm 23.5 - 2.9 26 10.0 - - - - - - - 0.0
14/12:30pm 22.0 - 2.2 27 9.4 - - - - - - - 0.0
14/12:00pm 21.1 - 2.9 30 8.7 - - - - - - - 0.0
14/11:30am 20.4 - 3.2 32 8.2 - - - - - - - 0.0
14/11:00am 19.2 - 4.6 38 7.1 - - - - - - - 0.0
14/10:30am 18.7 - 4.8 40 6.8 - - - - - - - 0.0
14/10:00am 17.8 - 5.4 44 6.1 - - - - - - - 0.0
14/09:30am 17.6 - 5.5 45 5.9 - - - - - - - 0.0
14/09:00am 16.0 - 4.7 47 5.4 - - - - - - - 0.0
14/08:30am 16.1 - 4.8 47 5.4 - - - - - - - 0.0
14/08:00am 15.5 - 5.1 50 5.0 - - - - - - - 0.0
14/07:30am 15.2 - 6.0 54 4.5 - - - - - - - 0.0
14/07:00am 15.1 - 6.4 56 4.3 - - - - - - - 0.0
14/06:30am 15.0 - 6.6 57 4.1 - - - - - - - 0.0
14/06:00am 15.6 - 6.6 55 4.4 - - - - - - - 0.0
14/05:30am 16.1 - 5.7 50 5.0 - - - - - - - 0.0
14/05:00am 16.6 - 6.1 50 5.2 - - - - - - - 0.0
14/04:30am 17.2 - 5.8 47 5.6 - - - - - - - 0.0
14/04:00am 18.1 - 5.7 44 6.1 - - - - - - - 0.0
14/03:30am 18.9 - 7.7 48 5.8 - - - - - - - 0.0
14/03:00am 19.2 - 10.7 58 4.6 - - - - - - - 0.0
14/02:30am 19.5 - 11.3 59 4.5 - - - - - - - 0.0
14/02:00am 20.0 - 11.0 56 5.0 - - - - - - - 0.0
14/01:30am 20.9 - 11.5 55 5.3 - - - - - - - 0.0
14/01:00am 21.6 - 11.3 52 5.8 - - - - - - - 0.0
14/12:30am 23.0 - 10.8 46 6.8 - - - - - - - 0.0
14/12:00am 23.5 - 10.2 43 7.4 - - - - - - - 0.0
 
Date/Time
EDT
Temp
°C
App
Temp
°C
Dew
Point
°C
Rel
Hum
%
Delta-T
°C
Wind Press
QNH
hPa
Press
MSL
hPa
Rain since
9am
mm
Dir  Spd
km/h
Gust
km/h
Spd
kts
Gust
kts
13/11:30pm 22.8 - 7.8 38 7.9 - - - - - - - 0.0
13/11:00pm 23.1 - 7.2 36 8.3 - - - - - - - 0.0

Other Formats:

Comma delimited format used in spreadsheet applications
http://www.bom.gov.au/fwo/IDN60801/IDN60801.94798.axf

JavaScript Object Notation format (JSON) in row-major order
http://www.bom.gov.au/fwo/IDN60801/IDN60801.94798.json